Time;durP1;ratioP1;P1;durP2;ratioP2;P2;SDS_P1;SDS_P2;PMS_P1;PMS_P2;Temp;Humidity;BMP_temperature;BMP_pressure;BME280_temperature;BME280_humidity;BME280_pressure;Samples;Min_cycle;Max_cycle;Signal;HPM_P1;HPM_P2
2023/03/01 00:02:00;;;;;;;14.45;9.82;;;;;;;-2.34;100.00;-17963.81;5075231;28;20040;-86
2023/03/01 00:04:27;;;;;;;13.65;9.95;;;;;;;-2.35;100.00;-17963.53;5079739;28;20052;-86
2023/03/01 00:06:53;;;;;;;12.43;9.68;;;;;;;-2.36;100.00;-17963.38;5047535;28;20032;-86
2023/03/01 00:09:18;;;;;;;12.80;9.63;;;;;;;-2.50;100.00;-17959.63;5055190;28;20063;-86
2023/03/01 00:11:44;;;;;;;10.02;8.30;;;;;;;-2.46;100.00;-17960.47;5064017;28;20035;-84
2023/03/01 00:14:09;;;;;;;12.20;8.82;;;;;;;-2.54;100.00;-17958.53;5058712;28;20391;-84
2023/03/01 00:16:38;;;;;;;12.85;9.32;;;;;;;-2.58;100.00;-17957.28;5064413;28;20040;-84
2023/03/01 00:19:04;;;;;;;12.82;10.02;;;;;;;-2.66;100.00;-17955.06;5050665;28;20044;-84
2023/03/01 00:21:30;;;;;;;15.15;9.73;;;;;;;-2.57;100.00;-17957.69;5051931;28;20056;-85
2023/03/01 00:23:56;;;;;;;15.85;10.07;;;;;;;-2.64;100.00;-17955.63;5064753;28;20048;-85
2023/03/01 00:26:23;;;;;;;17.42;10.20;;;;;;;-2.63;100.00;-17956.03;5067419;28;20032;-85
2023/03/01 00:28:49;;;;;;;16.50;10.50;;;;;;;-2.60;100.00;-17956.72;5066936;28;20047;-84
2023/03/01 00:31:18;;;;;;;16.20;9.88;;;;;;;-2.66;100.00;-17955.19;5057238;28;20049;-84
2023/03/01 00:33:44;;;;;;;15.80;9.95;;;;;;;-2.65;100.00;-17955.47;5061267;28;20033;-84
2023/03/01 00:36:11;;;;;;;13.90;9.88;;;;;;;-2.67;100.00;-17954.91;5069122;28;20032;-84
2023/03/01 00:38:44;;;;;;;14.65;10.68;;;;;;;-2.62;100.00;-17956.31;5051860;28;20048;-84
2023/03/01 00:41:12;;;;;;;14.50;10.43;;;;;;;-2.62;100.00;-17956.16;5065539;28;20048;-85
2023/03/01 00:43:38;;;;;;;16.20;11.23;;;;;;;-2.73;100.00;-17953.25;5063915;28;20625;-84
2023/03/01 00:46:05;;;;;;;14.82;11.00;;;;;;;-2.81;100.00;-17951.16;5048859;28;20036;-85
2023/03/01 00:48:31;;;;;;;12.88;9.68;;;;;;;-2.72;100.00;-17953.53;5059573;28;20033;-84
2023/03/01 00:50:57;;;;;;;15.23;11.10;;;;;;;-2.81;100.00;-17951.16;5046719;28;20044;-84
2023/03/01 00:53:22;;;;;;;18.67;10.70;;;;;;;-2.78;100.00;-17951.88;5060147;28;20066;-84
2023/03/01 00:55:47;;;;;;;15.82;11.48;;;;;;;-2.91;100.00;-17948.25;5046921;28;20390;-84
2023/03/01 00:58:13;;;;;;;15.13;10.45;;;;;;;-2.95;100.00;-17947.28;5042446;28;20059;-84
2023/03/01 01:00:38;;;;;;;15.38;10.82;;;;;;;-3.01;100.00;-17945.75;5045868;28;20041;-85
2023/03/01 01:03:04;;;;;;;16.17;10.30;;;;;;;-3.02;100.00;-17945.47;5051044;28;20041;-84
2023/03/01 01:05:29;;;;;;;15.55;10.55;;;;;;;-3.04;100.00;-17944.91;5050661;28;20178;-85
2023/03/01 01:07:54;;;;;;;16.17;11.02;;;;;;;-3.07;100.00;-17943.94;5065695;28;20447;-85
2023/03/01 01:10:20;;;;;;;15.55;11.00;;;;;;;-3.06;100.00;-17944.38;5051813;28;20029;-85
2023/03/01 01:12:46;;;;;;;17.23;11.75;;;;;;;-3.04;100.00;-17944.91;5044847;28;20041;-85
2023/03/01 01:15:13;;;;;;;15.82;10.98;;;;;;;-3.14;100.00;-17942.16;5043411;28;20391;-85
2023/03/01 01:17:40;;;;;;;14.05;11.18;;;;;;;-3.14;100.00;-17942.00;5066147;28;20103;-85
2023/03/01 01:20:06;;;;;;;15.85;11.57;;;;;;;-3.14;100.00;-17942.00;5068015;28;20145;-84
2023/03/01 01:22:31;;;;;;;15.07;10.73;;;;;;;-3.18;100.00;-17941.03;5067007;28;20074;-84
2023/03/01 01:24:57;;;;;;;17.95;11.77;;;;;;;-3.26;100.00;-17938.94;5052953;28;20036;-84
2023/03/01 01:27:22;;;;;;;16.10;11.43;;;;;;;-3.26;100.00;-17938.81;5069341;28;20448;-84
2023/03/01 01:29:48;;;;;;;17.85;11.73;;;;;;;-3.31;100.00;-17937.41;5048959;28;20058;-84
2023/03/01 01:32:13;;;;;;;15.15;11.65;;;;;;;-3.29;100.00;-17937.97;5068062;28;20032;-84
2023/03/01 01:34:38;;;;;;;17.15;11.68;;;;;;;-3.35;100.00;-17936.44;5048160;28;20056;-84
2023/03/01 01:37:07;;;;;;;16.50;11.52;;;;;;;-3.38;100.00;-17935.47;5069280;28;20060;-84
2023/03/01 01:39:33;;;;;;;18.88;11.88;;;;;;;-3.43;100.00;-17934.38;5067725;28;20036;-84
2023/03/01 01:42:00;;;;;;;20.15;11.85;;;;;;;-3.33;100.00;-17937.00;5073778;28;20044;-84
2023/03/01 01:44:27;;;;;;;17.73;11.68;;;;;;;-3.33;100.00;-17936.88;5059118;28;20059;-84
2023/03/01 01:47:04;;;;;;;16.98;12.07;;;;;;;-3.33;100.00;-17936.88;5070238;28;20123;-84
2023/03/01 01:49:36;;;;;;;18.85;12.00;;;;;;;-3.46;100.00;-17933.41;5034139;28;20105;-84
2023/03/01 01:52:22;;;;;;;18.25;12.70;;;;;;;-3.48;100.00;-17932.97;5060940;28;20044;-83
2023/03/01 01:54:53;;;;;;;16.90;12.35;;;;;;;-3.44;100.00;-17933.94;5060025;28;20063;-82
2023/03/01 01:57:23;;;;;;;20.77;12.68;;;;;;;-3.52;100.00;-17931.88;5065157;28;20502;-83
2023/03/01 01:59:56;;;;;;;16.15;11.80;;;;;;;-3.52;100.00;-17931.88;5060259;28;20348;-83
2023/03/01 02:02:21;;;;;;;16.65;12.20;;;;;;;-3.55;100.00;-17931.03;5057918;28;20102;-84
2023/03/01 02:04:49;;;;;;;17.42;11.88;;;;;;;-3.57;100.00;-17930.47;5058105;28;20048;-83
2023/03/01 02:07:21;;;;;;;18.02;12.40;;;;;;;-3.53;100.00;-17931.59;5055962;28;20055;-83
2023/03/01 02:09:48;;;;;;;17.85;12.23;;;;;;;-3.61;100.00;-17929.38;5058683;28;20061;-83
2023/03/01 02:12:17;;;;;;;17.02;12.45;;;;;;;-3.66;100.00;-17928.13;5063972;28;20301;-83
2023/03/01 02:14:43;;;;;;;18.63;12.23;;;;;;;-3.67;100.00;-17927.84;5058469;28;20124;-83
2023/03/01 02:17:09;;;;;;;16.30;11.90;;;;;;;-3.60;100.00;-17929.66;5070372;28;21094;-84
2023/03/01 02:19:54;;;;;;;16.05;12.27;;;;;;;-3.64;100.00;-17928.69;5064284;28;20037;-83
2023/03/01 02:22:25;;;;;;;19.05;12.20;;;;;;;-3.66;100.00;-17928.13;5045770;28;20037;-83
2023/03/01 02:25:09;;;;;;;20.25;12.80;;;;;;;-3.71;100.00;-17926.59;5047000;28;20096;-83
2023/03/01 02:28:03;;;;;;;20.25;12.63;;;;;;;-3.75;100.00;-17925.47;5042278;28;20036;-83
2023/03/01 02:30:29;;;;;;;19.80;11.85;;;;;;;-3.74;100.00;-17925.91;5021891;28;20041;-84
2023/03/01 02:33:02;;;;;;;20.00;12.88;;;;;;;-3.75;100.00;-17925.47;5059913;28;20119;-83
2023/03/01 02:35:33;;;;;;;17.67;12.68;;;;;;;-3.80;100.00;-17924.09;5045091;28;20410;-84
2023/03/01 02:38:01;;;;;;;18.58;12.55;;;;;;;-3.81;100.00;-17923.81;5048752;28;20584;-83
2023/03/01 02:40:29;;;;;;;19.35;13.07;;;;;;;-3.81;100.00;-17923.81;5070246;28;20151;-85
2023/03/01 02:42:57;;;;;;;19.13;12.05;;;;;;;-3.78;100.00;-17924.78;5069400;28;20650;-84
2023/03/01 02:45:24;;;;;;;18.55;13.00;;;;;;;-3.85;100.00;-17922.84;5072560;28;20125;-85
2023/03/01 02:47:49;;;;;;;19.52;14.10;;;;;;;-3.86;100.00;-17922.69;5071708;28;20044;-84
2023/03/01 02:50:30;;;;;;;20.17;12.15;;;;;;;-3.82;100.00;-17923.53;5043973;28;20394;-84
2023/03/01 02:53:34;;;;;;;20.13;12.95;;;;;;;-3.90;100.00;-17921.59;5068907;28;20050;-84
2023/03/01 02:56:00;;;;;;;17.63;12.90;;;;;;;-3.89;100.00;-17921.72;4998234;28;20051;-84
2023/03/01 02:58:26;;;;;;;17.90;13.30;;;;;;;-3.94;100.00;-17920.47;5049652;28;20037;-83
2023/03/01 03:00:52;;;;;;;18.13;13.20;;;;;;;-3.90;100.00;-17921.44;5051656;28;20390;-84
2023/03/01 03:03:20;;;;;;;17.30;13.25;;;;;;;-3.86;100.00;-17922.69;5068335;28;20068;-83
2023/03/01 03:05:46;;;;;;;18.58;13.50;;;;;;;-3.89;100.00;-17921.72;5069379;28;20040;-84
2023/03/01 03:08:11;;;;;;;20.73;12.95;;;;;;;-3.88;100.00;-17922.16;5063662;28;20086;-83
2023/03/01 03:10:42;;;;;;;19.70;13.15;;;;;;;-3.85;100.00;-17922.84;5061842;28;20037;-83
2023/03/01 03:13:11;;;;;;;21.42;12.35;;;;;;;-3.84;100.00;-17923.13;5086067;28;20116;-84
2023/03/01 03:15:38;;;;;;;;;;;;;;;-3.91;100.00;-17921.31;5089193;28;20047;-84
2023/03/01 03:18:07;;;;;;;21.15;13.57;;;;;;;-4.01;100.00;-17918.53;5069055;28;19999;-83
2023/03/01 03:20:33;;;;;;;20.35;13.32;;;;;;;-4.02;100.00;-17918.25;5069537;28;20429;-83
2023/03/01 03:22:58;;;;;;;18.80;12.93;;;;;;;-3.94;100.00;-17920.34;5066005;28;20075;-83
2023/03/01 03:25:25;;;;;;;20.27;13.10;;;;;;;-3.93;100.00;-17920.75;5062952;28;20468;-84
2023/03/01 03:27:56;;;;;;;17.42;12.20;;;;;;;-3.96;100.00;-17919.78;5045888;28;20047;-83
2023/03/01 03:30:23;;;;;;;19.20;13.13;;;;;;;-4.01;100.00;-17918.41;5063916;28;20499;-83
2023/03/01 03:32:54;;;;;;;17.45;11.57;;;;;;;-4.04;100.00;-17917.56;5069072;28;20124;-83
2023/03/01 03:35:29;;;;;;;18.33;12.68;;;;;;;-4.00;100.00;-17918.81;5065582;28;20059;-83
2023/03/01 03:38:02;;;;;;;19.88;13.48;;;;;;;-4.00;100.00;-17918.81;5068623;28;20670;-83
2023/03/01 03:41:02;;;;;;;19.17;13.52;;;;;;;-4.14;100.00;-17914.94;5048304;28;20388;-83
2023/03/01 03:43:28;;;;;;;17.73;12.90;;;;;;;-4.20;100.00;-17913.25;5035389;28;20052;-84
2023/03/01 03:45:53;;;;;;;18.85;13.73;;;;;;;-4.25;100.00;-17911.88;5070162;28;20106;-83
2023/03/01 03:48:19;;;;;;;18.13;12.50;;;;;;;-4.17;100.00;-17914.09;5065731;28;20434;-84
2023/03/01 03:50:51;;;;;;;17.98;12.73;;;;;;;-4.22;100.00;-17912.69;5060547;28;20109;-84
2023/03/01 03:53:17;;;;;;;23.88;13.23;;;;;;;-4.24;100.00;-17912.28;5049796;28;20045;-84
2023/03/01 03:55:44;;;;;;;19.95;13.82;;;;;;;-4.28;100.00;-17911.03;5070122;28;20037;-83
2023/03/01 03:58:10;;;;;;;20.05;11.88;;;;;;;-4.19;100.00;-17913.53;5053359;28;20036;-83
2023/03/01 04:00:42;;;;;;;20.05;12.93;;;;;;;-4.23;100.00;-17912.41;5053795;28;20503;-83
2023/03/01 04:03:11;;;;;;;18.65;11.52;;;;;;;-4.28;100.00;-17911.03;5062295;28;20553;-83
2023/03/01 04:05:38;;;;;;;20.70;14.30;;;;;;;-4.36;100.00;-17908.94;5069700;28;20048;-82
2023/03/01 04:08:06;;;;;;;18.33;12.55;;;;;;;-4.26;100.00;-17911.72;5066214;28;20082;-82
2023/03/01 04:10:41;;;;;;;23.15;14.85;;;;;;;-4.28;100.00;-17911.03;5074010;28;20521;-83
2023/03/01 04:13:09;;;;;;;19.33;13.15;;;;;;;-4.26;100.00;-17911.72;5071589;28;20036;-83
2023/03/01 04:15:35;;;;;;;22.13;13.82;;;;;;;-4.32;100.00;-17910.19;5071730;28;20033;-83
2023/03/01 04:18:00;;;;;;;19.98;13.50;;;;;;;-4.25;100.00;-17911.88;5077434;28;20455;-83
2023/03/01 04:20:28;;;;;;;19.40;14.02;;;;;;;-4.36;100.00;-17909.09;5065977;28;20056;-83
2023/03/01 04:23:10;;;;;;;20.90;14.15;;;;;;;-4.36;100.00;-17909.09;5053301;28;20048;-83
2023/03/01 04:25:40;;;;;;;20.08;13.02;;;;;;;-4.33;100.00;-17909.91;5072643;28;20140;-83
2023/03/01 04:28:06;;;;;;;20.17;13.18;;;;;;;-4.29;100.00;-17910.75;5059428;28;20056;-83
2023/03/01 04:30:35;;;;;;;18.33;11.75;;;;;;;-4.35;100.00;-17909.38;5055632;28;20032;-83
2023/03/01 04:33:08;;;;;;;16.80;12.20;;;;;;;-4.37;100.00;-17908.81;5072045;28;20037;-83
2023/03/01 04:35:34;;;;;;;20.40;12.95;;;;;;;-4.28;100.00;-17911.16;5070583;28;20131;-83
2023/03/01 04:38:00;;;;;;;18.08;13.02;;;;;;;-4.33;100.00;-17909.78;5072124;28;20383;-83
2023/03/01 04:40:25;;;;;;;19.42;12.65;;;;;;;-4.38;100.00;-17908.53;5058589;28;20044;-83
2023/03/01 04:42:51;;;;;;;19.83;13.27;;;;;;;-4.37;100.00;-17908.81;5053010;28;20063;-84
2023/03/01 04:45:16;;;;;;;23.30;13.80;;;;;;;-4.35;100.00;-17909.38;5060302;28;20129;-84
2023/03/01 04:47:44;;;;;;;18.92;12.93;;;;;;;-4.37;100.00;-17908.81;5065783;28;20056;-83
2023/03/01 04:50:12;;;;;;;19.88;13.02;;;;;;;-4.35;100.00;-17909.38;5065018;28;20032;-83
2023/03/01 04:52:37;;;;;;;19.83;13.30;;;;;;;-4.38;100.00;-17908.53;5071164;28;20040;-84
2023/03/01 04:55:04;;;;;;;22.38;12.73;;;;;;;-4.43;100.00;-17907.16;5070208;28;20041;-83
2023/03/01 04:57:30;;;;;;;18.83;12.05;;;;;;;-4.48;100.00;-17905.75;5057037;28;20496;-82
2023/03/01 04:59:55;;;;;;;20.38;13.68;;;;;;;-4.41;100.00;-17907.69;5072897;28;20071;-83
2023/03/01 05:02:21;;;;;;;17.95;12.60;;;;;;;-4.47;100.00;-17905.88;5068032;28;20531;-83
2023/03/01 05:04:46;;;;;;;20.35;13.32;;;;;;;-4.49;100.00;-17905.47;5051715;28;20041;-83
2023/03/01 05:07:12;;;;;;;19.48;14.20;;;;;;;-4.55;100.00;-17903.81;5055070;28;20051;-83
2023/03/01 05:09:38;;;;;;;17.65;12.00;;;;;;;-4.53;100.00;-17904.38;5065778;28;20499;-84
2023/03/01 05:12:04;;;;;;;17.40;11.70;;;;;;;-4.53;100.00;-17904.38;5066971;28;20051;-83
2023/03/01 05:14:29;;;;;;;21.77;13.82;;;;;;;-4.46;100.00;-17906.31;5052218;28;20518;-83
2023/03/01 05:16:55;;;;;;;17.92;11.88;;;;;;;-4.48;100.00;-17905.75;5065970;28;20048;-83
2023/03/01 05:19:22;;;;;;;19.80;13.45;;;;;;;-4.49;100.00;-17905.47;5047397;28;20098;-84
2023/03/01 05:22:03;;;;;;;21.73;13.60;;;;;;;-4.47;100.00;-17905.88;5066330;28;20124;-83
2023/03/01 05:24:31;;;;;;;20.80;12.40;;;;;;;-4.46;100.00;-17906.16;5048126;28;20115;-83
2023/03/01 05:26:57;;;;;;;21.83;13.87;;;;;;;-4.47;100.00;-17906.03;5048436;28;20120;-85
2023/03/01 05:29:25;;;;;;;18.85;12.35;;;;;;;-4.59;100.00;-17902.69;5066953;28;20464;-85
2023/03/01 05:31:58;;;;;;;19.85;12.55;;;;;;;-4.57;100.00;-17903.38;5074948;28;20547;-86
2023/03/01 05:34:29;;;;;;;18.33;11.93;;;;;;;-4.62;100.00;-17901.84;5066395;28;20488;-85
2023/03/01 05:36:55;;;;;;;19.48;13.20;;;;;;;-4.59;100.00;-17902.84;5048312;28;20087;-84
2023/03/01 05:39:22;;;;;;;20.83;14.27;;;;;;;-4.59;100.00;-17902.84;5067773;28;20044;-87
2023/03/01 05:41:48;;;;;;;20.00;13.68;;;;;;;-4.66;100.00;-17900.75;4990267;28;20493;-85
2023/03/01 05:44:13;;;;;;;20.48;14.60;;;;;;;-4.61;100.00;-17902.13;4969129;28;20038;-86
2023/03/01 05:46:39;;;;;;;17.98;13.10;;;;;;;-4.60;100.00;-17902.41;4981012;28;20098;-84
2023/03/01 05:49:05;;;;;;;19.40;12.63;;;;;;;-4.66;100.00;-17900.88;4978787;28;20035;-84
2023/03/01 05:51:30;;;;;;;20.25;13.25;;;;;;;-4.63;100.00;-17901.56;4966745;28;20093;-84
2023/03/01 05:53:55;;;;;;;23.58;14.60;;;;;;;-4.66;100.00;-17900.88;4977490;28;20065;-84
2023/03/01 05:56:22;;;;;;;21.55;13.50;;;;;;;-4.75;100.00;-17898.38;4978472;28;20114;-84
2023/03/01 05:58:50;;;;;;;21.42;14.63;;;;;;;-4.74;100.00;-17898.66;4976713;28;20053;-83
2023/03/01 06:01:15;;;;;;;20.48;13.18;;;;;;;-4.72;100.00;-17899.06;4981346;28;20070;-83
2023/03/01 06:03:41;;;;;;;18.70;13.50;;;;;;;-4.72;100.00;-17899.06;5010397;22;20135;-83
2023/03/01 06:06:06;;;;;;;21.58;13.90;;;;;;;-4.74;100.00;-17898.66;5060214;28;20098;-82
2023/03/01 06:08:32;;;;;;;20.90;14.75;;;;;;;-4.78;100.00;-17897.56;5061509;28;20257;-83
2023/03/01 06:10:57;;;;;;;20.05;14.52;;;;;;;-4.72;100.00;-17899.22;5064126;28;20497;-82
2023/03/01 06:13:23;;;;;;;20.73;14.52;;;;;;;-4.72;100.00;-17899.22;5070830;28;20040;-82
2023/03/01 06:15:48;;;;;;;18.83;13.98;;;;;;;-4.68;100.00;-17900.19;5062619;28;20040;-83
2023/03/01 06:18:14;;;;;;;22.60;14.85;;;;;;;-4.66;100.00;-17900.88;5081359;28;20028;-83
2023/03/01 06:20:39;;;;;;;22.42;14.45;;;;;;;-4.60;100.00;-17902.41;5063951;28;20045;-83
2023/03/01 06:23:05;;;;;;;20.13;13.85;;;;;;;-4.55;100.00;-17903.94;5064440;28;20037;-82
2023/03/01 06:25:30;;;;;;;22.15;14.82;;;;;;;-4.53;100.00;-17904.38;5072616;28;20110;-83
2023/03/01 06:27:56;;;;;;;21.73;15.02;;;;;;;-4.47;100.00;-17905.88;5066357;28;20120;-84
2023/03/01 06:30:23;;;;;;;19.08;14.07;;;;;;;-4.43;100.00;-17907.16;5068997;28;20033;-81
2023/03/01 06:32:49;;;;;;;23.05;14.40;;;;;;;-4.37;100.00;-17908.66;5061915;28;20037;-82
2023/03/01 06:35:17;;;;;;;19.35;12.85;;;;;;;-4.40;100.00;-17907.97;5060484;28;20045;-82
2023/03/01 06:37:43;;;;;;;19.60;14.43;;;;;;;-4.39;100.00;-17908.25;5061876;28;20115;-82
2023/03/01 06:40:11;;;;;;;26.27;15.23;;;;;;;-4.35;100.00;-17909.22;5065371;28;20099;-82
2023/03/01 06:42:38;;;;;;;17.58;12.48;;;;;;;-4.34;100.00;-17909.66;5059823;28;20398;-82
2023/03/01 06:45:05;;;;;;;22.55;14.18;;;;;;;-4.31;100.00;-17910.47;5050227;28;20044;-81
2023/03/01 06:47:30;;;;;;;27.05;15.23;;;;;;;-4.31;100.00;-17910.34;5072223;28;20072;-82
2023/03/01 06:49:56;;;;;;;23.80;15.15;;;;;;;-4.24;100.00;-17912.28;5067394;28;20612;-81
2023/03/01 06:52:21;;;;;;;21.13;14.65;;;;;;;-4.20;100.00;-17913.25;5061688;28;20456;-84
2023/03/01 06:54:46;;;;;;;19.38;13.27;;;;;;;-4.19;100.00;-17913.66;5069033;28;20043;-83
2023/03/01 06:57:12;;;;;;;21.33;15.20;;;;;;;-4.10;100.00;-17916.03;5063084;28;20028;-84
2023/03/01 06:59:37;;;;;;;20.73;15.32;;;;;;;-4.07;100.00;-17916.88;5054752;28;20578;-83
2023/03/01 07:02:02;;;;;;;22.83;14.50;;;;;;;-4.04;100.00;-17917.69;5056929;28;20033;-83
2023/03/01 07:04:31;;;;;;;22.85;14.43;;;;;;;-3.93;100.00;-17920.63;5062156;28;20127;-83
2023/03/01 07:06:56;;;;;;;23.38;16.42;;;;;;;-3.88;100.00;-17922.16;5058580;28;20334;-83
2023/03/01 07:09:22;;;;;;;22.08;15.43;;;;;;;-3.88;100.00;-17922.16;5058634;28;20083;-82
2023/03/01 07:11:48;;;;;;;25.75;16.38;;;;;;;-3.77;100.00;-17925.06;5068951;28;20029;-81
2023/03/01 07:14:14;;;;;;;24.02;16.77;;;;;;;-3.60;100.00;-17929.66;5059490;28;20399;-81
2023/03/01 07:16:39;;;;;;;23.35;16.48;;;;;;;-3.51;100.00;-17932.00;5062340;28;20039;-81
2023/03/01 07:19:05;;;;;;;22.08;15.82;;;;;;;-3.40;100.00;-17935.06;5046505;28;20426;-80
2023/03/01 07:21:31;;;;;;;25.23;15.07;;;;;;;-3.39;100.00;-17935.34;5061974;28;20035;-81
2023/03/01 07:23:56;;;;;;;21.48;13.48;;;;;;;-3.35;100.00;-17936.44;5047584;28;20041;-81
2023/03/01 07:26:22;;;;;;;20.33;15.02;;;;;;;-3.24;100.00;-17939.50;5058096;28;20043;-81
2023/03/01 07:28:47;;;;;;;21.40;15.52;;;;;;;-3.13;100.00;-17942.28;5070203;28;20109;-81
2023/03/01 07:31:12;;;;;;;22.67;15.40;;;;;;;-3.05;100.00;-17944.66;5062967;28;20037;-81
2023/03/01 07:33:38;;;;;;;18.55;13.35;;;;;;;-2.94;100.00;-17947.56;5062083;28;20047;-81
2023/03/01 07:36:04;;;;;;;19.95;15.38;;;;;;;-2.96;100.00;-17947.00;5065008;28;20040;-81
2023/03/01 07:38:30;;;;;;;19.50;15.15;;;;;;;-2.89;100.00;-17948.81;5066023;28;20029;-81
2023/03/01 07:41:02;;;;;;;18.55;13.77;;;;;;;-2.72;100.00;-17953.66;5064797;28;20587;-81
2023/03/01 07:43:29;;;;;;;21.42;14.50;;;;;;;-2.63;100.00;-17956.03;5037808;28;20048;-81
2023/03/01 07:45:54;;;;;;;20.27;14.68;;;;;;;-2.51;100.00;-17959.34;5065682;28;20032;-81
2023/03/01 07:48:20;;;;;;;19.75;14.80;;;;;;;-2.46;100.00;-17960.47;5068049;28;20498;-81
2023/03/01 07:50:45;;;;;;;22.95;14.88;;;;;;;-2.36;100.00;-17963.25;5063319;28;20036;-81
2023/03/01 07:53:10;;;;;;;19.08;14.55;;;;;;;-2.27;100.00;-17965.88;5062414;28;20037;-81
2023/03/01 07:55:36;;;;;;;18.42;14.75;;;;;;;-2.26;100.00;-17966.03;5063238;28;20119;-81
2023/03/01 07:58:02;;;;;;;20.40;14.48;;;;;;;-2.18;100.00;-17968.09;5057235;28;20041;-81
2023/03/01 08:00:27;;;;;;;20.38;14.30;;;;;;;-2.10;100.00;-17970.31;5056918;28;20044;-81
2023/03/01 08:02:52;;;;;;;22.50;14.95;;;;;;;-1.98;100.00;-17973.66;5066341;28;20454;-81
2023/03/01 08:05:18;;;;;;;17.08;13.32;;;;;;;-1.78;100.00;-17978.91;5055549;28;20128;-81
2023/03/01 08:07:43;;;;;;;21.25;14.18;;;;;;;-1.69;100.00;-17981.56;5065885;28;20094;-81
2023/03/01 08:10:09;;;;;;;19.85;14.25;;;;;;;-1.61;100.00;-17983.78;5060968;28;20682;-81
2023/03/01 08:12:35;;;;;;;17.10;13.13;;;;;;;-1.44;100.00;-17988.22;5067480;28;20036;-82
2023/03/01 08:15:00;;;;;;;18.70;11.63;;;;;;;-1.38;100.00;-17990.03;5058446;28;20518;-81
2023/03/01 08:17:25;;;;;;;17.83;11.80;;;;;;;-1.24;100.00;-17993.75;5062432;28;20394;-81
2023/03/01 08:19:51;;;;;;;17.75;12.27;;;;;;;-1.10;100.00;-17997.38;5062063;28;20129;-82
2023/03/01 08:22:16;;;;;;;17.58;10.90;;;;;;;-1.04;100.00;-17999.16;5065868;28;20036;-82
2023/03/01 08:24:41;;;;;;;17.75;11.13;;;;;;;-0.90;100.00;-18002.91;5052923;28;20036;-82
2023/03/01 08:27:07;;;;;;;17.45;11.20;;;;;;;-0.75;100.00;-18007.06;5061956;28;20060;-81
2023/03/01 08:29:33;;;;;;;17.10;11.70;;;;;;;-0.59;100.00;-18011.22;5048657;28;20036;-84
2023/03/01 08:31:59;;;;;;;18.35;12.00;;;;;;;-0.52;100.00;-18013.19;5062980;28;20032;-85
2023/03/01 08:34:24;;;;;;;14.80;10.43;;;;;;;-0.39;100.00;-18016.63;5062310;28;20125;-84
2023/03/01 08:36:52;;;;;;;15.77;11.52;;;;;;;-0.29;100.00;-18019.56;5065059;28;20067;-83
2023/03/01 08:39:19;;;;;;;15.98;11.73;;;;;;;-0.20;100.00;-18021.75;5068089;28;20557;-83
2023/03/01 08:41:46;;;;;;;14.95;10.82;;;;;;;-0.15;100.00;-18023.28;5061365;28;20064;-83
2023/03/01 08:44:13;;;;;;;16.77;10.23;;;;;;;-0.01;100.00;-18027.16;5071515;28;20040;-83
2023/03/01 08:46:41;;;;;;;15.40;9.75;;;;;;;0.15;100.00;-18031.47;5064772;28;20044;-83
2023/03/01 08:49:08;;;;;;;16.20;10.50;;;;;;;0.30;100.00;-18035.47;5046872;28;20043;-83
2023/03/01 08:51:36;;;;;;;16.33;10.15;;;;;;;0.41;100.00;-18038.53;5053467;28;20036;-83
2023/03/01 08:54:06;;;;;;;15.70;10.95;;;;;;;0.55;100.00;-18042.28;5055818;28;20044;-83
2023/03/01 08:56:32;;;;;;;16.95;10.52;;;;;;;0.64;100.00;-18044.75;5060919;28;20045;-83
2023/03/01 08:58:57;;;;;;;15.90;10.52;;;;;;;0.72;100.00;-18046.84;5064350;28;20124;-83
2023/03/01 09:01:23;;;;;;;15.27;9.38;;;;;;;0.76;100.00;-18047.81;5060866;28;20036;-84
2023/03/01 09:03:48;;;;;;;13.27;9.77;;;;;;;0.87;100.00;-18050.84;5048530;28;20068;-84
2023/03/01 09:06:14;;;;;;;13.98;9.00;;;;;;;0.99;100.00;-18054.03;5060021;28;20053;-84
2023/03/01 09:08:42;;;;;;;12.45;8.95;;;;;;;1.03;100.00;-18055.28;5059417;28;20052;-85
2023/03/01 09:11:10;;;;;;;11.05;8.60;;;;;;;1.17;100.00;-18058.88;5060149;28;20036;-85
2023/03/01 09:13:35;;;;;;;16.55;9.07;;;;;;;1.26;100.00;-18061.50;5060195;28;20037;-84
2023/03/01 09:16:03;;;;;;;12.80;9.63;;;;;;;1.35;100.00;-18063.88;5063724;28;20036;-84
2023/03/01 09:18:29;;;;;;;13.60;9.52;;;;;;;1.47;100.00;-18067.06;5053280;28;20093;-83
2023/03/01 09:21:06;;;;;;;12.05;8.60;;;;;;;1.58;100.00;-18070.09;5064737;28;20032;-83
2023/03/01 09:23:36;;;;;;;13.02;8.75;;;;;;;1.63;100.00;-18071.34;5055993;28;20106;-83
2023/03/01 09:26:02;;;;;;;13.50;8.25;;;;;;;1.77;100.00;-18075.34;5062008;28;20062;-83
2023/03/01 09:28:28;;;;;;;11.40;7.45;;;;;;;1.89;100.00;-18078.41;5042268;28;20100;-82
2023/03/01 09:30:53;;;;;;;12.68;8.45;;;;;;;1.98;100.00;-18080.88;5059026;28;20721;-83
2023/03/01 09:33:18;;;;;;;10.18;7.50;;;;;;;2.24;100.00;-18087.94;5060245;28;20036;-85
2023/03/01 09:35:46;;;;;;;11.52;8.57;;;;;;;2.32;100.00;-18090.03;5061567;28;20044;-84
2023/03/01 09:38:13;;;;;;;12.02;7.90;;;;;;;2.40;100.00;-18092.25;5061013;28;20048;-84
2023/03/01 09:40:45;;;;;;;11.07;7.60;;;;;;;2.52;100.00;-18095.41;5062949;28;20044;-84
2023/03/01 09:43:35;;;;;;;11.82;8.35;;;;;;;2.71;100.00;-18100.69;5058254;28;20043;-84
2023/03/01 09:46:06;;;;;;;11.45;8.32;;;;;;;2.78;100.00;-18102.59;5059702;28;20440;-84
2023/03/01 09:48:40;;;;;;;13.20;8.35;;;;;;;2.80;100.00;-18103.16;5042031;28;20044;-83
2023/03/01 09:51:12;;;;;;;12.30;7.85;;;;;;;2.89;100.00;-18105.50;5042668;28;20380;-83
2023/03/01 09:53:38;;;;;;;13.07;7.20;;;;;;;3.03;100.00;-18109.25;5061308;28;20032;-84
2023/03/01 09:56:21;;;;;;;11.23;6.68;;;;;;;3.17;100.00;-18113.25;5060925;28;20029;-83
2023/03/01 09:59:04;;;;;;;10.85;6.32;;;;;;;3.33;100.00;-18117.53;5057478;28;20033;-83
2023/03/01 10:01:40;;;;;;;11.05;6.05;;;;;;;3.35;100.00;-18118.09;5056499;28;20045;-83
2023/03/01 10:04:34;;;;;;;9.55;6.82;;;;;;;3.45;100.00;-18120.72;5056184;28;20151;-84
2023/03/01 10:07:09;;;;;;;10.63;7.78;;;;;;;3.44;100.00;-18120.31;5042368;28;20036;-83
2023/03/01 10:09:39;;;;;;;10.98;6.68;;;;;;;3.48;100.00;-18121.41;5038548;28;20094;-83
2023/03/01 10:12:10;;;;;;;11.30;7.57;;;;;;;3.55;100.00;-18123.34;5056096;28;20521;-84
2023/03/01 10:14:43;;;;;;;10.55;7.80;;;;;;;3.60;100.00;-18124.72;5064617;28;20044;-84
2023/03/01 10:17:12;;;;;;;11.15;6.55;;;;;;;3.70;100.00;-18127.34;5063415;28;20049;-84
2023/03/01 10:19:43;;;;;;;;;;;;;;;3.81;100.00;-18130.53;5046790;28;20136;-83
2023/03/01 10:22:27;;;;;;;13.30;7.05;;;;;;;3.73;100.00;-18128.31;5079669;28;19939;-84
2023/03/01 10:24:55;;;;;;;13.63;7.47;;;;;;;3.65;100.00;-18125.97;5058660;28;20052;-83
2023/03/01 10:27:25;;;;;;;11.13;7.65;;;;;;;3.77;100.00;-18129.28;5056780;28;20479;-83
2023/03/01 10:30:09;;;;;;;11.63;7.25;;;;;;;3.94;100.00;-18133.97;5062785;28;20044;-84
2023/03/01 10:32:34;;;;;;;14.23;7.85;;;;;;;3.94;100.00;-18133.84;5065453;28;20449;-84
2023/03/01 10:34:59;;;;;;;13.80;7.78;;;;;;;3.99;100.00;-18135.38;5062506;28;20082;-84
2023/03/01 10:37:27;;;;;;;10.10;6.57;;;;;;;4.03;100.00;-18136.47;5061263;28;20158;-85
2023/03/01 10:39:55;;;;;;;10.90;7.25;;;;;;;4.10;100.00;-18138.25;5080038;28;20503;-85
2023/03/01 10:42:37;;;;;;;10.57;7.40;;;;;;;4.15;100.00;-18139.66;5049516;28;20041;-85
2023/03/01 10:45:24;;;;;;;12.95;7.90;;;;;;;4.19;100.00;-18140.75;5060116;28;20125;-85
2023/03/01 10:48:10;;;;;;;12.80;8.00;;;;;;;4.23;100.00;-18141.84;5056045;28;20127;-86
2023/03/01 10:50:37;;;;;;;12.40;7.57;;;;;;;4.29;100.00;-18143.38;5060251;28;20463;-86
2023/03/01 10:53:05;;;;;;;12.38;7.90;;;;;;;4.37;100.00;-18145.44;5066053;28;20068;-86
2023/03/01 10:55:35;;;;;;;12.30;7.32;;;;;;;4.44;100.00;-18147.53;5071057;28;20483;-85
2023/03/01 10:58:21;;;;;;;13.27;8.00;;;;;;;4.53;100.00;-18149.88;5071728;28;20048;-85
2023/03/01 11:00:51;;;;;;;11.45;7.57;;;;;;;4.59;100.00;-18151.53;5054828;28;20064;-84
2023/03/01 11:03:25;;;;;;;11.68;8.65;;;;;;;4.71;100.00;-18154.84;5064082;28;20595;-85
2023/03/01 11:06:13;;;;;;;11.68;8.55;;;;;;;4.66;100.00;-18153.47;5071780;28;20104;-84
2023/03/01 11:08:38;;;;;;;13.45;8.60;;;;;;;4.73;100.00;-18155.38;5043971;28;20578;-84
2023/03/01 11:11:16;;;;;;;13.30;9.48;;;;;;;4.83;100.00;-18158.00;5064329;28;20041;-84